createdAt,value
2023-04-15T00:01:37.307Z,11.98
2023-04-15T00:04:05.121Z,11.93
2023-04-15T00:06:31.953Z,11.15
2023-04-15T00:08:58.907Z,12.23
2023-04-15T00:11:25.977Z,10.80
2023-04-15T00:13:52.757Z,11.32
2023-04-15T00:16:19.472Z,11.37
2023-04-15T00:18:46.327Z,11.65
2023-04-15T00:21:13.178Z,11.10
2023-04-15T00:23:39.899Z,11.15
2023-04-15T00:26:07.454Z,9.38
2023-04-15T00:28:34.379Z,13.23
2023-04-15T00:31:01.227Z,11.02
2023-04-15T00:33:27.938Z,12.45
2023-04-15T00:35:54.973Z,14.10
2023-04-15T00:38:21.710Z,11.48
2023-04-15T00:40:48.595Z,8.80
2023-04-15T00:43:16.601Z,10.30
2023-04-15T00:45:43.511Z,11.00
2023-04-15T00:48:11.486Z,12.48
2023-04-15T00:50:38.365Z,12.75
2023-04-15T00:53:05.656Z,12.53
2023-04-15T00:55:32.582Z,11.80
2023-04-15T00:57:59.355Z,9.70
2023-04-15T01:00:27.092Z,10.25
2023-04-15T01:02:53.983Z,15.32
2023-04-15T01:05:20.907Z,11.07
2023-04-15T01:07:48.791Z,12.95
2023-04-15T01:10:15.626Z,10.90
2023-04-15T01:12:42.509Z,10.57
2023-04-15T01:15:11.006Z,11.98
2023-04-15T01:17:38.585Z,12.27
2023-04-15T01:20:06.460Z,12.82
2023-04-15T01:22:34.471Z,13.13
2023-04-15T01:25:10.382Z,11.82
2023-04-15T01:27:40.087Z,12.07
2023-04-15T01:30:08.183Z,11.13
2023-04-15T01:32:35.076Z,9.18
2023-04-15T01:35:02.240Z,10.57
2023-04-15T01:37:29.776Z,12.45
2023-04-15T01:39:58.074Z,12.48
2023-04-15T01:42:24.826Z,13.10
2023-04-15T01:44:52.015Z,12.43
2023-04-15T01:47:18.963Z,13.88
2023-04-15T01:49:45.681Z,14.98
2023-04-15T01:52:12.405Z,13.50
2023-04-15T01:54:39.155Z,11.87
2023-04-15T01:57:06.005Z,13.05
2023-04-15T01:59:33.138Z,13.27
2023-04-15T02:02:00.537Z,12.77
2023-04-15T02:04:28.013Z,9.70
2023-04-15T02:06:54.711Z,12.00
2023-04-15T02:09:21.613Z,12.02
2023-04-15T02:11:48.407Z,15.52
2023-04-15T02:14:15.280Z,10.23
2023-04-15T02:16:41.990Z,10.70
2023-04-15T02:19:08.985Z,12.00
2023-04-15T02:21:35.970Z,14.88
2023-04-15T02:24:02.837Z,13.20
2023-04-15T02:26:32.597Z,10.30
2023-04-15T02:29:00.048Z,13.52
2023-04-15T02:31:27.030Z,11.93
2023-04-15T02:33:53.779Z,8.88
2023-04-15T02:36:21.541Z,11.02
2023-04-15T02:38:48.252Z,10.65
2023-04-15T02:41:15.120Z,11.13
2023-04-15T02:43:41.942Z,11.07
2023-04-15T02:46:08.844Z,10.02
2023-04-15T02:48:36.047Z,11.40
2023-04-15T02:51:13.713Z,12.50
2023-04-15T02:53:41.615Z,10.40
2023-04-15T02:56:08.671Z,13.37
2023-04-15T02:58:36.425Z,10.93
2023-04-15T03:01:03.402Z,10.95
2023-04-15T03:03:30.296Z,10.13
2023-04-15T03:05:57.082Z,9.98
2023-04-15T03:08:23.808Z,12.43
2023-04-15T03:10:52.426Z,13.30
2023-04-15T03:13:19.666Z,9.85
2023-04-15T03:15:49.506Z,12.75
2023-04-15T03:18:16.716Z,12.18
2023-04-15T03:20:43.537Z,9.23
2023-04-15T03:23:10.549Z,15.32
2023-04-15T03:25:37.492Z,11.52
2023-04-15T03:28:04.506Z,12.38
2023-04-15T03:30:31.536Z,12.32
2023-04-15T03:32:58.482Z,13.83
2023-04-15T03:35:25.510Z,11.27
2023-04-15T03:37:52.389Z,9.75
2023-04-15T03:40:19.212Z,11.00
2023-04-15T03:42:46.032Z,13.70
2023-04-15T03:45:12.800Z,11.37
2023-04-15T03:47:39.608Z,12.73
2023-04-15T03:50:07.457Z,13.52
2023-04-15T03:52:34.194Z,11.98
2023-04-15T03:55:01.608Z,11.63
2023-04-15T03:57:28.390Z,11.27
2023-04-15T03:59:55.349Z,13.45
2023-04-15T04:02:23.435Z,10.57
2023-04-15T04:04:50.817Z,10.30
2023-04-15T04:07:18.838Z,12.98
2023-04-15T04:09:47.347Z,11.93
2023-04-15T04:12:14.605Z,11.57
2023-04-15T04:14:41.358Z,13.05
2023-04-15T04:17:08.449Z,12.45
2023-04-15T04:19:35.460Z,12.60
2023-04-15T04:22:02.553Z,12.33
2023-04-15T04:24:29.521Z,11.35
2023-04-15T04:26:57.336Z,10.90
2023-04-15T04:29:24.354Z,15.75
2023-04-15T04:31:51.406Z,13.65
2023-04-15T04:34:18.195Z,14.33
2023-04-15T04:36:44.984Z,12.52
2023-04-15T04:39:12.894Z,11.23
2023-04-15T04:41:39.715Z,13.15
2023-04-15T04:44:06.416Z,13.32
2023-04-15T04:46:33.158Z,14.93
2023-04-15T04:48:59.995Z,13.18
2023-04-15T04:51:26.860Z,14.35
2023-04-15T04:53:54.353Z,13.43
2023-04-15T04:56:21.381Z,13.65
2023-04-15T04:58:48.160Z,15.07
2023-04-15T05:01:14.998Z,12.57
2023-04-15T05:03:41.956Z,11.40
2023-04-15T05:06:08.904Z,10.45
2023-04-15T05:08:36.523Z,12.50
2023-04-15T05:11:04.342Z,13.60
2023-04-15T05:13:31.631Z,11.93
2023-04-15T05:15:58.448Z,12.85
2023-04-15T05:18:25.353Z,14.93
2023-04-15T05:20:52.139Z,13.85
2023-04-15T05:23:19.584Z,15.07
2023-04-15T05:25:46.321Z,14.63
2023-04-15T05:28:13.068Z,18.10
2023-04-15T05:30:40.729Z,12.68
2023-04-15T05:33:07.497Z,16.08
2023-04-15T05:35:34.375Z,16.90
2023-04-15T05:38:01.155Z,12.98
2023-04-15T05:40:28.213Z,16.05
2023-04-15T05:42:54.922Z,12.85
2023-04-15T05:45:21.794Z,14.98
2023-04-15T05:47:51.008Z,18.90
2023-04-15T05:50:17.829Z,15.80
2023-04-15T05:52:45.881Z,15.43
2023-04-15T05:55:12.853Z,12.20
2023-04-15T05:57:39.616Z,14.82
2023-04-15T06:00:07.255Z,12.97
2023-04-15T06:02:34.100Z,13.63
2023-04-15T06:05:01.348Z,13.73
2023-04-15T06:07:28.168Z,13.30
2023-04-15T06:09:54.912Z,11.85
2023-04-15T06:12:21.853Z,13.20
2023-04-15T06:14:48.619Z,12.23
2023-04-15T06:17:15.340Z,11.43
2023-04-15T06:19:42.489Z,12.55
2023-04-15T06:22:09.357Z,13.13
2023-04-15T06:24:37.168Z,14.50
2023-04-15T06:27:04.133Z,14.65
2023-04-15T06:29:31.205Z,12.95
2023-04-15T06:31:57.959Z,11.90
2023-04-15T06:34:24.768Z,11.25
2023-04-15T06:36:51.652Z,14.00
2023-04-15T06:39:18.365Z,14.65
2023-04-15T06:41:45.138Z,12.45
2023-04-15T06:44:11.879Z,10.35
2023-04-15T06:46:38.653Z,11.23
2023-04-15T06:49:05.492Z,12.87
2023-04-15T06:51:32.727Z,11.02
2023-04-15T06:53:59.423Z,9.18
2023-04-15T06:56:26.191Z,10.85
2023-04-15T06:58:52.951Z,11.27
2023-04-15T07:01:20.153Z,11.43
2023-04-15T07:03:47.068Z,9.65
2023-04-15T07:06:14.381Z,12.95
2023-04-15T07:08:41.219Z,9.23
2023-04-15T07:11:08.682Z,12.13
2023-04-15T07:13:35.571Z,11.73
2023-04-15T07:16:02.488Z,9.90
2023-04-15T07:18:29.213Z,11.80
2023-04-15T07:20:56.205Z,11.23
2023-04-15T07:23:23.296Z,61.42
2023-04-15T07:25:50.078Z,14.30
2023-04-15T07:28:16.913Z,16.58
2023-04-15T07:30:43.666Z,11.85
2023-04-15T07:33:10.430Z,13.35
2023-04-15T07:35:37.173Z,12.27
2023-04-15T07:38:04.061Z,16.13
2023-04-15T07:40:30.806Z,11.45
2023-04-15T07:42:58.454Z,13.70
2023-04-15T07:45:25.260Z,15.57
2023-04-15T07:47:52.015Z,13.25
2023-04-15T07:50:19.741Z,12.17
2023-04-15T07:52:46.545Z,15.05
2023-04-15T07:55:13.335Z,12.32
2023-04-15T07:57:40.111Z,11.80
2023-04-15T08:00:07.808Z,9.60
2023-04-15T08:02:36.934Z,8.47
2023-04-15T08:05:05.400Z,9.35
2023-04-15T08:07:34.589Z,9.55
2023-04-15T08:10:01.628Z,9.10
2023-04-15T08:12:29.963Z,9.18
2023-04-15T08:14:57.584Z,11.10
2023-04-15T08:17:24.816Z,9.02
2023-04-15T08:19:51.610Z,8.15
2023-04-15T08:22:20.633Z,7.18
2023-04-15T08:24:48.627Z,7.05
2023-04-15T08:27:15.377Z,7.20
2023-04-15T08:29:42.164Z,7.57
2023-04-15T08:32:09.840Z,8.80
2023-04-15T08:34:36.864Z,8.23
2023-04-15T08:37:03.687Z,8.10
2023-04-15T08:39:30.403Z,7.80
2023-04-15T08:42:05.710Z,8.85
2023-04-15T08:44:34.898Z,6.55
2023-04-15T08:47:06.141Z,6.88
2023-04-15T08:49:33.289Z,9.90
2023-04-15T08:52:00.780Z,7.27
2023-04-15T08:54:28.520Z,8.43
2023-04-15T08:56:57.909Z,8.85
2023-04-15T08:59:25.011Z,7.10
2023-04-15T09:01:51.957Z,8.77
2023-04-15T09:04:18.812Z,6.20
2023-04-15T09:06:45.649Z,10.55
2023-04-15T09:09:14.553Z,9.90
2023-04-15T09:11:42.401Z,8.63
2023-04-15T09:14:09.344Z,8.05
2023-04-15T09:17:04.438Z,9.30
2023-04-15T09:19:31.728Z,5.65
2023-04-15T09:21:59.685Z,4.82
2023-04-15T09:24:36.118Z,6.07
2023-04-15T09:27:03.675Z,6.85
2023-04-15T09:29:31.537Z,4.93
2023-04-15T09:32:10.784Z,4.78
2023-04-15T09:34:38.077Z,4.75
2023-04-15T09:37:04.941Z,4.22
2023-04-15T09:39:51.922Z,5.28
2023-04-15T09:42:26.972Z,5.57
2023-04-15T09:44:54.037Z,4.25
2023-04-15T09:47:31.537Z,5.22
2023-04-15T09:49:59.833Z,6.57
2023-04-15T09:52:27.458Z,7.45
2023-04-15T09:54:58.554Z,7.63
2023-04-15T09:57:25.556Z,7.63
2023-04-15T09:59:52.458Z,6.80
2023-04-15T10:02:23.296Z,4.13
2023-04-15T10:04:51.875Z,8.15
2023-04-15T10:07:20.787Z,6.60
2023-04-15T10:09:49.195Z,4.95
2023-04-15T10:12:20.237Z,4.80
2023-04-15T10:14:52.971Z,3.13
2023-04-15T10:17:22.916Z,3.92
2023-04-15T10:19:53.035Z,2.70
2023-04-15T10:22:20.086Z,3.90
2023-04-15T10:24:47.854Z,3.53
2023-04-15T10:27:14.636Z,2.25
2023-04-15T10:29:41.504Z,3.90
2023-04-15T10:32:09.315Z,2.57
2023-04-15T10:34:36.953Z,2.50
2023-04-15T10:37:04.748Z,5.15
2023-04-15T10:39:34.603Z,3.38
2023-04-15T10:42:19.370Z,4.90
2023-04-15T10:44:51.594Z,5.17
2023-04-15T10:47:20.268Z,5.38
2023-04-15T10:49:50.012Z,4.78
2023-04-15T10:52:22.251Z,4.63
2023-04-15T10:55:02.182Z,7.13
2023-04-15T10:57:36.201Z,4.67
2023-04-15T11:00:11.202Z,6.40
2023-04-15T11:02:43.690Z,4.88
2023-04-15T11:05:12.146Z,4.68
2023-04-15T11:07:48.574Z,5.15
2023-04-15T11:10:18.393Z,3.97
2023-04-15T11:12:45.959Z,5.70
2023-04-15T11:15:45.999Z,5.40
2023-04-15T11:18:23.040Z,4.75
2023-04-15T11:20:59.244Z,5.45
2023-04-15T11:23:34.119Z,5.27
2023-04-15T11:26:02.712Z,4.75
2023-04-15T11:28:33.173Z,4.70
2023-04-15T11:31:07.047Z,3.78
2023-04-15T11:33:33.837Z,5.28
2023-04-15T11:36:02.288Z,4.17
2023-04-15T11:38:29.290Z,5.47
2023-04-15T11:40:56.211Z,4.70
2023-04-15T11:43:23.930Z,4.57
2023-04-15T11:45:59.036Z,4.38
2023-04-15T11:48:30.745Z,4.43
2023-04-15T11:51:07.915Z,4.40
2023-04-15T11:53:46.179Z,3.22
2023-04-15T11:56:25.526Z,3.13
2023-04-15T11:58:54.677Z,4.82
2023-04-15T12:01:21.726Z,6.33
2023-04-15T12:04:01.199Z,4.55
2023-04-15T12:06:35.138Z,4.20
2023-04-15T12:09:07.643Z,3.70
2023-04-15T12:11:35.897Z,4.22
2023-04-15T12:14:21.178Z,4.90
2023-04-15T12:16:51.817Z,3.50
2023-04-15T12:19:40.414Z,4.13
2023-04-15T12:22:11.607Z,3.97
2023-04-15T12:24:39.369Z,3.80
2023-04-15T12:27:11.833Z,2.67
2023-04-15T12:29:40.418Z,3.00
2023-04-15T12:32:09.563Z,5.80
2023-04-15T12:34:40.445Z,2.75
2023-04-15T12:37:12.092Z,3.88
2023-04-15T12:39:41.564Z,5.10
2023-04-15T12:42:09.299Z,3.15
2023-04-15T12:44:37.443Z,2.92
2023-04-15T12:47:04.753Z,3.55
2023-04-15T12:49:32.670Z,4.07
2023-04-15T12:52:01.129Z,3.27
2023-04-15T12:54:29.348Z,3.55
2023-04-15T12:56:56.354Z,4.07
2023-04-15T12:59:24.175Z,2.88
2023-04-15T13:01:52.511Z,2.50
2023-04-15T13:04:20.816Z,3.97
2023-04-15T13:06:48.026Z,2.03
2023-04-15T13:09:15.810Z,1.73
2023-04-15T13:11:43.014Z,2.72
2023-04-15T13:14:11.720Z,3.17
2023-04-15T13:16:40.286Z,5.43
2023-04-15T13:19:07.335Z,2.40
2023-04-15T13:21:35.966Z,2.47
2023-04-15T13:24:04.254Z,2.20
2023-04-15T13:26:31.843Z,1.60
2023-04-15T13:28:59.036Z,2.67
2023-04-15T13:31:26.361Z,3.85
2023-04-15T13:33:53.260Z,3.25
2023-04-15T13:36:21.200Z,3.95
2023-04-15T13:38:50.920Z,2.38
2023-04-15T13:41:18.571Z,5.20
2023-04-15T13:43:45.707Z,3.28
2023-04-15T13:46:12.889Z,2.83
2023-04-15T13:48:39.887Z,3.28
2023-04-15T13:51:06.713Z,4.50
2023-04-15T13:53:38.206Z,3.10
2023-04-15T13:56:10.328Z,4.30
2023-04-15T13:58:38.271Z,5.13
2023-04-15T14:01:07.051Z,4.35
2023-04-15T14:03:38.010Z,4.55
2023-04-15T14:06:06.356Z,1.70
2023-04-15T14:08:33.428Z,2.28
2023-04-15T14:11:00.481Z,3.85
2023-04-15T14:13:27.374Z,3.53
2023-04-15T14:15:54.088Z,4.15
2023-04-15T14:18:20.857Z,2.87
2023-04-15T14:20:47.554Z,2.17
2023-04-15T14:23:14.350Z,3.65
2023-04-15T14:25:41.126Z,2.25
2023-04-15T14:28:07.951Z,2.13
2023-04-15T14:30:34.898Z,2.53
2023-04-15T14:33:01.806Z,1.20
2023-04-15T14:35:29.200Z,2.88
2023-04-15T14:37:56.325Z,1.52
2023-04-15T14:40:23.293Z,2.60
2023-04-15T14:42:50.168Z,3.97
2023-04-15T14:45:17.821Z,2.67
2023-04-15T14:47:45.039Z,2.85
2023-04-15T14:50:12.151Z,1.33
2023-04-15T14:52:39.118Z,1.80
2023-04-15T14:55:14.473Z,2.87
2023-04-15T14:57:43.664Z,1.52
2023-04-15T15:00:13.177Z,3.47
2023-04-15T15:02:42.348Z,3.40
2023-04-15T15:05:10.557Z,3.72
2023-04-15T15:07:39.726Z,3.57
2023-04-15T15:10:07.422Z,2.05
2023-04-15T15:12:36.508Z,2.53
2023-04-15T15:15:12.430Z,3.88
2023-04-15T15:17:46.699Z,1.98
2023-04-15T15:20:13.528Z,1.70
2023-04-15T15:22:40.222Z,1.17
2023-04-15T15:25:11.559Z,3.67
2023-04-15T15:27:38.541Z,3.53
2023-04-15T15:30:06.801Z,2.20
2023-04-15T15:32:33.767Z,2.80
2023-04-15T15:35:00.696Z,2.08
2023-04-15T15:37:27.595Z,2.97
2023-04-15T15:39:54.401Z,3.42
2023-04-15T15:42:21.306Z,2.30
2023-04-15T15:44:49.310Z,4.33
2023-04-15T15:47:16.711Z,3.30
2023-04-15T15:49:43.565Z,4.28
2023-04-15T15:52:10.879Z,4.53
2023-04-15T15:54:37.816Z,3.10
2023-04-15T15:57:04.675Z,4.13
2023-04-15T15:59:33.122Z,3.47
2023-04-15T16:02:00.916Z,3.60
2023-04-15T16:04:27.874Z,3.95
2023-04-15T16:06:54.607Z,3.90
2023-04-15T16:09:21.539Z,3.07
2023-04-15T16:11:48.394Z,4.00
2023-04-15T16:14:15.668Z,3.58
2023-04-15T16:16:42.646Z,3.17
2023-04-15T16:19:09.558Z,4.25
2023-04-15T16:21:45.431Z,5.53
2023-04-15T16:24:12.256Z,3.08
2023-04-15T16:26:41.203Z,3.75
2023-04-15T16:29:08.211Z,2.25
2023-04-15T16:31:36.027Z,3.35
2023-04-15T16:34:03.078Z,3.37
2023-04-15T16:36:29.891Z,5.72
2023-04-15T16:38:56.612Z,3.05
2023-04-15T16:41:23.584Z,3.40
2023-04-15T16:43:50.567Z,3.10
2023-04-15T16:46:17.518Z,2.20
2023-04-15T16:48:44.360Z,2.83
2023-04-15T16:51:11.176Z,3.75
2023-04-15T16:53:37.939Z,3.42
2023-04-15T16:56:05.936Z,2.42
2023-04-15T16:58:32.707Z,7.00
2023-04-15T17:00:59.790Z,2.45
2023-04-15T17:03:27.022Z,3.42
2023-04-15T17:05:53.882Z,1.83
2023-04-15T17:08:20.786Z,5.07
2023-04-15T17:10:47.700Z,4.00
2023-04-15T17:13:14.539Z,4.70
2023-04-15T17:15:41.343Z,2.88
2023-04-15T17:18:09.312Z,4.00
2023-04-15T17:20:36.070Z,2.95
2023-04-15T17:23:03.749Z,5.77
2023-04-15T17:25:30.879Z,5.32
2023-04-15T17:27:57.667Z,4.65
2023-04-15T17:30:24.524Z,3.60
2023-04-15T17:32:51.987Z,3.95
2023-04-15T17:35:18.908Z,4.03
2023-04-15T17:37:46.659Z,3.42
2023-04-15T17:40:14.887Z,2.47
2023-04-15T17:42:41.938Z,5.40
2023-04-15T17:45:09.228Z,4.43
2023-04-15T17:47:36.263Z,3.53
2023-04-15T17:50:03.184Z,5.97
2023-04-15T17:52:30.024Z,4.57
2023-04-15T17:54:57.721Z,3.17
2023-04-15T17:57:25.333Z,6.50
2023-04-15T17:59:52.083Z,4.00
2023-04-15T18:02:19.121Z,4.78
2023-04-15T18:04:45.957Z,5.82
2023-04-15T18:07:12.772Z,4.65
2023-04-15T18:09:39.757Z,4.40
2023-04-15T18:12:07.726Z,2.60
2023-04-15T18:14:35.378Z,8.40
2023-04-15T18:17:05.231Z,4.45
2023-04-15T18:19:32.229Z,4.63
2023-04-15T18:22:00.251Z,6.97
2023-04-15T18:24:27.871Z,3.83
2023-04-15T18:26:54.607Z,4.93
2023-04-15T18:29:21.479Z,7.60
2023-04-15T18:31:48.344Z,9.57
2023-04-15T18:34:15.332Z,5.53
2023-04-15T18:36:42.117Z,5.53
2023-04-15T18:39:08.915Z,4.13
2023-04-15T18:41:35.603Z,4.32
2023-04-15T18:44:02.398Z,5.78
2023-04-15T18:46:29.397Z,5.22
2023-04-15T18:48:56.337Z,4.90
2023-04-15T18:51:23.128Z,4.10
2023-04-15T18:53:49.947Z,3.78
2023-04-15T18:56:17.302Z,3.63
2023-04-15T18:59:10.006Z,4.88
2023-04-15T19:01:32.035Z,6.13
2023-04-15T19:03:58.888Z,5.80
2023-04-15T19:06:27.320Z,6.22
2023-04-15T19:08:54.719Z,4.93
2023-04-15T19:11:21.805Z,3.97
2023-04-15T19:13:48.690Z,5.37
2023-04-15T19:16:15.479Z,4.22
2023-04-15T19:18:42.943Z,5.90
2023-04-15T19:21:10.922Z,2.08
2023-04-15T19:23:37.826Z,3.63
2023-04-15T19:26:04.673Z,6.47
2023-04-15T19:28:31.416Z,7.45
2023-04-15T19:30:58.275Z,5.35
2023-04-15T19:33:27.346Z,5.60
2023-04-15T19:35:54.120Z,3.50
2023-04-15T19:38:20.912Z,7.73
2023-04-15T19:40:47.816Z,4.55
2023-04-15T19:43:14.741Z,4.43
2023-04-15T19:45:41.513Z,5.00
2023-04-15T19:48:08.564Z,1.13
2023-04-15T19:50:37.101Z,3.30
2023-04-15T19:53:04.103Z,3.25
2023-04-15T19:55:31.029Z,5.22
2023-04-15T19:57:57.812Z,4.25
2023-04-15T20:00:25.118Z,8.25
2023-04-15T20:02:55.653Z,4.43
2023-04-15T20:05:22.684Z,4.00
2023-04-15T20:07:52.041Z,3.15
2023-04-15T20:10:22.415Z,2.85
2023-04-15T20:12:52.740Z,3.72
2023-04-15T20:15:22.808Z,2.80
2023-04-15T20:17:50.477Z,2.38
2023-04-15T20:20:17.532Z,4.38
2023-04-15T20:22:44.350Z,1.83
2023-04-15T20:25:11.240Z,4.65
2023-04-15T20:27:37.974Z,4.73
2023-04-15T20:30:05.596Z,4.45
2023-04-15T20:32:35.688Z,3.88
2023-04-15T20:35:03.722Z,2.88
2023-04-15T20:37:33.243Z,3.78
2023-04-15T20:40:01.652Z,5.23
2023-04-15T20:42:32.198Z,5.95
2023-04-15T20:44:59.128Z,5.90
2023-04-15T20:47:26.372Z,4.53
2023-04-15T20:49:54.001Z,3.33
2023-04-15T20:52:20.858Z,2.90
2023-04-15T20:54:47.841Z,4.05
2023-04-15T20:57:14.561Z,3.85
2023-04-15T20:59:41.324Z,3.63
2023-04-15T21:02:08.167Z,3.53
2023-04-15T21:04:34.943Z,3.50
2023-04-15T21:07:01.714Z,6.18
2023-04-15T21:09:28.515Z,3.80
2023-04-15T21:14:25.670Z,4.07
2023-04-15T21:16:52.554Z,3.00
2023-04-15T21:19:19.354Z,7.32
2023-04-15T21:21:46.173Z,5.70
2023-04-15T21:24:12.943Z,7.10
2023-04-15T21:26:44.852Z,4.63
2023-04-15T21:29:12.079Z,3.43
2023-04-15T21:31:39.137Z,2.80
2023-04-15T21:34:06.056Z,7.10
2023-04-15T21:36:33.769Z,3.70
2023-04-15T21:39:00.939Z,4.35
2023-04-15T21:41:27.997Z,1.97
2023-04-15T21:43:55.055Z,3.53
2023-04-15T21:46:25.327Z,5.63
2023-04-15T21:48:55.881Z,5.75
2023-04-15T21:51:22.740Z,4.45
2023-04-15T21:53:49.494Z,2.67
2023-04-15T21:56:16.344Z,4.95
2023-04-15T21:58:43.285Z,3.97
2023-04-15T22:01:10.090Z,4.25
2023-04-15T22:03:37.069Z,4.05
2023-04-15T22:06:04.637Z,4.10
2023-04-15T22:08:41.353Z,5.75
2023-04-15T22:11:22.913Z,2.53
2023-04-15T22:13:49.814Z,3.67
2023-04-15T22:16:16.612Z,5.82
2023-04-15T22:18:43.396Z,3.67
2023-04-15T22:21:10.348Z,4.55
2023-04-15T22:23:37.090Z,6.68
2023-04-15T22:26:04.945Z,3.17
2023-04-15T22:28:31.736Z,3.28
2023-04-15T22:30:59.187Z,5.03
2023-04-15T22:33:26.204Z,5.18
2023-04-15T22:35:52.933Z,3.75
2023-04-15T22:38:19.712Z,9.20
2023-04-15T22:40:46.869Z,3.72
2023-04-15T22:43:13.636Z,5.10
2023-04-15T22:45:40.470Z,8.05
2023-04-15T22:48:07.243Z,7.60
2023-04-15T22:50:36.942Z,5.15
2023-04-15T22:53:03.746Z,6.43
2023-04-15T22:55:30.661Z,6.33
2023-04-15T22:57:57.612Z,4.72
2023-04-15T23:00:24.407Z,5.47
2023-04-15T23:02:51.591Z,5.80
2023-04-15T23:05:18.567Z,6.72
2023-04-15T23:07:45.573Z,2.93
2023-04-15T23:10:13.496Z,6.95
2023-04-15T23:12:40.294Z,10.93
2023-04-15T23:15:07.662Z,9.68
2023-04-15T23:17:34.857Z,7.40
2023-04-15T23:20:01.734Z,11.67
2023-04-15T23:22:28.489Z,6.03
2023-04-15T23:24:55.493Z,9.27
2023-04-15T23:27:22.881Z,6.95
2023-04-15T23:29:49.640Z,7.38
2023-04-15T23:32:16.389Z,2.50
2023-04-15T23:34:43.415Z,5.80
2023-04-15T23:37:10.165Z,11.77
2023-04-15T23:39:36.936Z,6.70
2023-04-15T23:42:04.037Z,3.85
2023-04-15T23:44:30.784Z,7.07
2023-04-15T23:46:57.571Z,8.60
2023-04-15T23:49:24.343Z,8.80
2023-04-15T23:51:51.143Z,6.45
2023-04-15T23:54:17.882Z,8.70
2023-04-15T23:56:44.690Z,7.37
2023-04-15T23:59:11.701Z,7.40
